Time;durP1;ratioP1;P1;durP2;ratioP2;P2;SDS_P1;SDS_P2;PMS_P1;PMS_P2;Temp;Humidity;BMP_temperature;BMP_pressure;BME280_temperature;BME280_humidity;BME280_pressure;Samples;Min_cycle;Max_cycle;Signal;HPM_P1;HPM_P2
2022/03/16 00:01:38;;;;;;;3.28;2.97;;;0.60;67.60;;;;;;5093751;28;20063;-63
2022/03/16 00:04:04;;;;;;;4.03;3.13;;;0.60;67.70;;;;;;5099153;28;20031;-63
2022/03/16 00:06:29;;;;;;;3.50;3.20;;;0.60;67.40;;;;;;5087336;28;20048;-63
2022/03/16 00:08:55;;;;;;;3.47;3.17;;;0.60;67.60;;;;;;5094014;28;20119;-63
2022/03/16 00:11:21;;;;;;;3.08;2.88;;;0.60;67.40;;;;;;5091320;28;20349;-63
2022/03/16 00:13:46;;;;;;;3.20;2.90;;;0.60;67.50;;;;;;5095539;28;20499;-63
2022/03/16 00:16:12;;;;;;;5.43;3.78;;;0.50;67.60;;;;;;5087469;28;20056;-63
2022/03/16 00:18:38;;;;;;;4.07;3.35;;;0.50;68.20;;;;;;5082884;28;20445;-63
2022/03/16 00:21:03;;;;;;;3.85;3.42;;;0.50;67.90;;;;;;5086254;28;20032;-63
2022/03/16 00:23:29;;;;;;;3.50;3.20;;;0.50;68.10;;;;;;5090664;28;20024;-63
2022/03/16 00:25:55;;;;;;;5.07;3.25;;;0.50;68.10;;;;;;5098676;28;20092;-63
2022/03/16 00:28:21;;;;;;;4.18;3.13;;;0.50;68.00;;;;;;5094009;28;20032;-63
2022/03/16 00:30:47;;;;;;;3.90;3.50;;;0.50;68.20;;;;;;5088626;28;20646;-63
2022/03/16 00:33:12;;;;;;;4.28;3.50;;;0.50;68.50;;;;;;5087769;28;20028;-63
2022/03/16 00:35:38;;;;;;;4.05;3.60;;;0.50;68.60;;;;;;5087264;28;20020;-63
2022/03/16 00:38:04;;;;;;;3.70;3.30;;;0.50;68.80;;;;;;5094296;28;20132;-63
2022/03/16 00:40:32;;;;;;;4.15;3.45;;;0.60;68.80;;;;;;5093474;28;20054;-63
2022/03/16 00:42:58;;;;;;;5.55;4.28;;;0.50;68.70;;;;;;5095226;28;20054;-63
2022/03/16 00:45:24;;;;;;;4.05;3.60;;;0.50;68.50;;;;;;5088845;28;20439;-63
2022/03/16 00:47:50;;;;;;;4.95;4.45;;;0.50;68.70;;;;;;5091269;28;20028;-63
2022/03/16 00:50:16;;;;;;;4.13;3.72;;;0.50;68.50;;;;;;5110852;28;20028;-63
2022/03/16 00:52:42;;;;;;;3.97;3.50;;;0.50;69.10;;;;;;5091270;28;20407;-63
2022/03/16 00:55:08;;;;;;;4.18;3.78;;;0.50;68.60;;;;;;5098332;28;20027;-63
2022/03/16 00:57:34;;;;;;;3.55;3.25;;;0.40;68.70;;;;;;5085670;28;20024;-63
2022/03/16 01:00:00;;;;;;;4.90;3.83;;;0.40;68.90;;;;;;5083140;28;20040;-63
2022/03/16 01:02:27;;;;;;;4.45;3.90;;;0.40;68.90;;;;;;5088282;28;20029;-63
2022/03/16 01:04:52;;;;;;;3.67;3.13;;;0.40;69.10;;;;;;5079492;28;20021;-63
2022/03/16 01:07:18;;;;;;;4.40;3.67;;;0.30;68.90;;;;;;5096154;28;20072;-63
2022/03/16 01:09:44;;;;;;;3.83;3.42;;;0.30;69.50;;;;;;5094627;28;20032;-63
2022/03/16 01:12:10;;;;;;;3.80;3.40;;;0.40;69.80;;;;;;5096509;28;20028;-63
2022/03/16 01:14:36;;;;;;;4.40;3.63;;;0.40;70.00;;;;;;5085708;28;20605;-63
2022/03/16 01:17:02;;;;;;;4.40;3.60;;;0.40;70.20;;;;;;5093026;28;20028;-63
2022/03/16 01:19:29;;;;;;;4.40;3.67;;;0.40;70.10;;;;;;5104182;28;20576;-63
2022/03/16 01:21:55;;;;;;;4.45;3.92;;;0.40;70.00;;;;;;5094537;28;20024;-63
2022/03/16 01:24:21;;;;;;;5.20;3.90;;;0.40;70.10;;;;;;5083736;28;20111;-63
2022/03/16 01:26:46;;;;;;;4.50;3.92;;;0.40;70.50;;;;;;5091681;28;20023;-63
2022/03/16 01:29:12;;;;;;;4.35;3.92;;;0.40;70.20;;;;;;5091741;28;20031;-63
2022/03/16 01:31:38;;;;;;;4.00;3.60;;;0.30;70.30;;;;;;5105604;28;20026;-63
2022/03/16 01:34:05;;;;;;;4.47;3.78;;;0.30;70.60;;;;;;5097935;28;20032;-63
2022/03/16 01:36:31;;;;;;;4.40;3.67;;;0.30;70.50;;;;;;5086852;28;20050;-63
2022/03/16 01:38:56;;;;;;;4.75;4.28;;;0.30;70.90;;;;;;5091961;28;20387;-63
2022/03/16 01:41:22;;;;;;;4.72;4.20;;;0.40;71.00;;;;;;5092496;28;20028;-63
2022/03/16 01:43:53;;;;;;;5.07;4.57;;;0.40;70.90;;;;;;5096227;28;20376;-63
2022/03/16 01:46:20;;;;;;;4.28;3.88;;;0.40;70.80;;;;;;5082966;28;20030;-63
2022/03/16 01:48:46;;;;;;;5.32;4.10;;;0.40;70.60;;;;;;5092194;28;20391;-63
2022/03/16 01:51:12;;;;;;;4.68;4.22;;;0.50;70.50;;;;;;5091313;28;20028;-63
2022/03/16 01:53:41;;;;;;;4.63;4.18;;;0.50;70.50;;;;;;5103655;28;20480;-63
2022/03/16 01:56:08;;;;;;;4.53;4.00;;;0.50;70.30;;;;;;5081324;28;20497;-63
2022/03/16 01:58:34;;;;;;;4.45;3.90;;;0.50;70.50;;;;;;5082123;28;20029;-63
2022/03/16 02:01:00;;;;;;;4.43;4.03;;;0.50;70.60;;;;;;5080469;28;20024;-63
2022/03/16 02:03:28;;;;;;;6.30;4.15;;;0.40;70.60;;;;;;5089975;28;20036;-63
2022/03/16 02:05:54;;;;;;;5.63;5.03;;;0.40;70.50;;;;;;5102701;28;20038;-63
2022/03/16 02:08:20;;;;;;;4.97;4.47;;;0.40;70.60;;;;;;5095386;28;20024;-63
2022/03/16 02:10:46;;;;;;;5.03;4.20;;;0.50;70.80;;;;;;5105676;28;20027;-63
2022/03/16 02:13:12;;;;;;;5.05;4.05;;;0.50;70.80;;;;;;5086745;28;20025;-63
2022/03/16 02:15:39;;;;;;;4.68;4.18;;;0.50;70.80;;;;;;5096401;28;20028;-63
2022/03/16 02:18:05;;;;;;;5.55;4.68;;;0.50;70.80;;;;;;5097596;28;20038;-63
2022/03/16 02:20:31;;;;;;;4.47;4.00;;;0.50;70.90;;;;;;5092534;28;20036;-63
2022/03/16 02:22:57;;;;;;;4.55;4.10;;;0.50;70.90;;;;;;5096221;28;20028;-63
2022/03/16 02:25:25;;;;;;;6.78;4.40;;;0.50;70.80;;;;;;5087695;28;20024;-63
2022/03/16 02:27:52;;;;;;;5.00;4.13;;;0.50;70.80;;;;;;5093631;28;20107;-63
2022/03/16 02:30:20;;;;;;;4.97;4.20;;;0.50;70.90;;;;;;5089849;28;20024;-63
2022/03/16 02:32:46;;;;;;;4.43;3.97;;;0.50;70.90;;;;;;5092391;28;20038;-63
2022/03/16 02:35:12;;;;;;;4.85;4.30;;;0.50;70.80;;;;;;5082975;28;20104;-63
2022/03/16 02:37:39;;;;;;;6.00;4.38;;;0.40;70.70;;;;;;5091344;28;20055;-63
2022/03/16 02:40:10;;;;;;;4.97;4.03;;;0.40;70.80;;;;;;5084901;28;20054;-63
2022/03/16 02:42:36;;;;;;;;;;;0.40;70.60;;;;;;5091229;28;20093;-63
2022/03/16 02:45:03;;;;;;;5.18;4.07;;;0.30;70.70;;;;;;5093168;28;20330;-63
2022/03/16 02:47:29;;;;;;;5.13;4.25;;;0.30;70.90;;;;;;5094772;28;20391;-63
2022/03/16 02:49:55;;;;;;;4.60;3.97;;;0.30;70.90;;;;;;5092324;28;20024;-63
2022/03/16 02:52:22;;;;;;;4.35;3.90;;;0.40;70.90;;;;;;5091756;28;20119;-63
2022/03/16 02:54:51;;;;;;;4.65;4.03;;;0.40;70.80;;;;;;5099226;28;20035;-63
2022/03/16 02:57:17;;;;;;;6.00;4.15;;;0.40;70.70;;;;;;5082611;28;20146;-63
2022/03/16 02:59:43;;;;;;;5.00;3.97;;;0.40;70.40;;;;;;5086460;28;20726;-63
2022/03/16 03:02:10;;;;;;;5.93;4.35;;;0.50;70.10;;;;;;5087221;28;20029;-63
2022/03/16 03:04:35;;;;;;;3.90;3.50;;;0.50;69.80;;;;;;5076074;28;20029;-63
2022/03/16 03:07:01;;;;;;;5.50;4.13;;;0.50;69.70;;;;;;5084770;28;20384;-63
2022/03/16 03:09:27;;;;;;;5.70;4.25;;;0.50;69.40;;;;;;5084749;28;20062;-63
2022/03/16 03:11:53;;;;;;;4.30;3.60;;;0.60;69.70;;;;;;5089991;28;20039;-63
2022/03/16 03:14:19;;;;;;;4.30;3.90;;;0.60;69.00;;;;;;5087328;28;20396;-63
2022/03/16 03:16:46;;;;;;;4.18;3.78;;;0.60;68.80;;;;;;5088959;28;20031;-63
2022/03/16 03:19:13;;;;;;;5.07;3.90;;;0.60;68.90;;;;;;5089293;28;20056;-63
2022/03/16 03:21:38;;;;;;;4.90;3.78;;;0.60;68.80;;;;;;5091580;28;20027;-63
2022/03/16 03:24:04;;;;;;;3.95;3.55;;;0.60;68.80;;;;;;5077849;28;20021;-63
2022/03/16 03:26:32;;;;;;;4.80;4.30;;;0.50;68.70;;;;;;5072980;28;20025;-63
2022/03/16 03:28:57;;;;;;;5.05;4.18;;;0.50;68.80;;;;;;5098980;28;20028;-63
2022/03/16 03:31:23;;;;;;;4.40;4.00;;;0.50;69.00;;;;;;5085336;28;20646;-63
2022/03/16 03:33:49;;;;;;;4.13;3.72;;;0.50;69.00;;;;;;5107179;28;20032;-63
2022/03/16 03:36:15;;;;;;;4.43;3.45;;;0.50;68.80;;;;;;5092048;28;20406;-63
2022/03/16 03:38:40;;;;;;;4.40;3.78;;;0.50;68.80;;;;;;5090800;28;20028;-63
2022/03/16 03:41:06;;;;;;;4.57;3.50;;;0.60;68.60;;;;;;5095979;28;20054;-63
2022/03/16 03:43:32;;;;;;;5.10;4.53;;;0.60;68.30;;;;;;5105239;28;20112;-63
2022/03/16 03:45:58;;;;;;;4.72;3.65;;;0.60;68.00;;;;;;5093150;28;20067;-63
2022/03/16 03:48:23;;;;;;;5.90;4.50;;;0.60;67.90;;;;;;5094529;28;20024;-63
2022/03/16 03:50:49;;;;;;;4.47;3.70;;;0.60;67.70;;;;;;5089155;28;20080;-63
2022/03/16 03:53:16;;;;;;;3.70;3.33;;;0.70;67.70;;;;;;5088690;28;20343;-63
2022/03/16 03:55:42;;;;;;;4.00;3.70;;;0.70;67.40;;;;;;5090371;28;20028;-63
2022/03/16 03:58:08;;;;;;;4.25;3.67;;;0.60;66.90;;;;;;5101454;28;20058;-63
2022/03/16 04:00:34;;;;;;;3.50;3.20;;;0.60;66.80;;;;;;5096920;28;20160;-63
2022/03/16 04:02:59;;;;;;;5.22;3.50;;;0.60;66.70;;;;;;5074693;28;20060;-63
2022/03/16 04:05:25;;;;;;;3.50;3.20;;;0.60;66.60;;;;;;5088240;28;20051;-63
2022/03/16 04:07:51;;;;;;;3.85;3.45;;;0.60;66.40;;;;;;5092393;28;20089;-63
2022/03/16 04:10:17;;;;;;;3.95;3.55;;;0.50;66.50;;;;;;5086769;28;20017;-63
2022/03/16 04:12:43;;;;;;;3.78;3.47;;;0.50;66.50;;;;;;5096359;28;20027;-63
2022/03/16 04:15:10;;;;;;;4.63;3.65;;;0.50;66.50;;;;;;5103850;28;20024;-63
2022/03/16 04:17:36;;;;;;;4.10;3.67;;;0.40;66.20;;;;;;5093753;28;20448;-63
2022/03/16 04:20:02;;;;;;;3.85;3.17;;;0.40;66.40;;;;;;5095756;28;20059;-63
2022/03/16 04:22:28;;;;;;;3.97;3.40;;;0.40;66.40;;;;;;5079649;28;20042;-63
2022/03/16 04:24:54;;;;;;;3.67;3.20;;;0.40;66.30;;;;;;5075302;28;20100;-63
2022/03/16 04:27:20;;;;;;;4.60;3.60;;;0.40;66.20;;;;;;5082953;28;20028;-63
2022/03/16 04:29:46;;;;;;;3.58;3.28;;;0.40;66.10;;;;;;5108002;28;20039;-63
2022/03/16 04:32:12;;;;;;;5.05;3.65;;;0.40;66.00;;;;;;5103040;28;20024;-63
2022/03/16 04:34:38;;;;;;;3.88;3.45;;;0.50;65.60;;;;;;5104287;28;20028;-63
2022/03/16 04:37:04;;;;;;;4.13;3.70;;;0.50;65.70;;;;;;5099266;28;20047;-63
2022/03/16 04:39:31;;;;;;;4.88;3.85;;;0.50;65.80;;;;;;5098586;28;20103;-63
2022/03/16 04:41:56;;;;;;;4.05;3.65;;;0.50;65.80;;;;;;5107376;28;20028;-63
2022/03/16 04:44:22;;;;;;;5.32;3.80;;;0.50;65.50;;;;;;5096134;28;20494;-63
2022/03/16 04:46:48;;;;;;;5.00;4.07;;;0.50;65.30;;;;;;5088650;28;20027;-63
2022/03/16 04:49:14;;;;;;;5.35;4.10;;;0.50;65.40;;;;;;5094689;28;20497;-63
2022/03/16 04:51:40;;;;;;;4.15;3.72;;;0.60;65.40;;;;;;5095244;28;20051;-63
2022/03/16 04:54:07;;;;;;;4.47;3.88;;;0.60;65.40;;;;;;5115905;28;20027;-63
2022/03/16 04:56:36;;;;;;;5.57;4.10;;;0.80;65.50;;;;;;5093362;28;20399;-65
2022/03/16 04:59:03;;;;;;;4.93;4.07;;;0.90;65.40;;;;;;5088562;28;20085;-63
2022/03/16 05:01:29;;;;;;;4.32;3.92;;;1.00;65.30;;;;;;5094713;28;20028;-63
2022/03/16 05:03:55;;;;;;;5.60;4.40;;;1.00;65.20;;;;;;5093420;28;20107;-63
2022/03/16 05:06:20;;;;;;;4.68;3.80;;;1.10;64.80;;;;;;5099492;28;20102;-63
2022/03/16 05:08:47;;;;;;;4.38;3.75;;;1.10;64.60;;;;;;5108927;28;20035;-63
2022/03/16 05:11:14;;;;;;;4.18;3.78;;;1.20;64.70;;;;;;5101329;28;20377;-63
2022/03/16 05:13:40;;;;;;;4.63;4.07;;;1.20;65.20;;;;;;5092361;28;20021;-63
2022/03/16 05:16:07;;;;;;;5.18;4.25;;;1.30;65.00;;;;;;5098296;28;20030;-63
2022/03/16 05:18:34;;;;;;;4.70;3.92;;;1.30;65.00;;;;;;5106504;28;20023;-63
2022/03/16 05:21:00;;;;;;;6.45;4.30;;;1.30;65.00;;;;;;5108235;28;20019;-63
2022/03/16 05:23:26;;;;;;;4.95;4.32;;;1.50;66.50;;;;;;5103646;28;20024;-63
2022/03/16 05:25:51;;;;;;;6.32;4.50;;;1.60;67.80;;;;;;5097708;28;20031;-63
2022/03/16 05:28:17;;;;;;;4.80;4.28;;;1.70;68.30;;;;;;5099624;28;20099;-63
2022/03/16 05:30:44;;;;;;;5.00;4.35;;;1.70;68.70;;;;;;5099124;28;20062;-63
2022/03/16 05:33:10;;;;;;;6.60;5.00;;;1.60;68.80;;;;;;5104974;28;20036;-63
2022/03/16 05:35:35;;;;;;;5.07;4.53;;;1.70;69.20;;;;;;5092190;28;20039;-63
2022/03/16 05:38:05;;;;;;;5.70;4.85;;;1.80;69.70;;;;;;5108126;28;20047;-63
2022/03/16 05:40:31;;;;;;;5.70;4.80;;;1.90;69.20;;;;;;5082149;28;20084;-63
2022/03/16 05:42:57;;;;;;;7.57;4.85;;;1.90;69.30;;;;;;5101827;28;20539;-63
2022/03/16 05:45:23;;;;;;;5.25;4.75;;;2.00;69.20;;;;;;5107374;28;20028;-63
2022/03/16 05:47:48;;;;;;;6.03;4.75;;;2.00;69.00;;;;;;5088686;28;20092;-63
2022/03/16 05:50:14;;;;;;;5.32;4.82;;;2.10;69.00;;;;;;5103744;28;20554;-63
2022/03/16 05:52:41;;;;;;;5.88;4.82;;;2.10;69.20;;;;;;5095696;28;20115;-63
2022/03/16 05:55:08;;;;;;;6.40;5.13;;;2.30;68.90;;;;;;5099393;28;20039;-63
2022/03/16 05:57:36;;;;;;;5.47;4.40;;;2.30;68.70;;;;;;5106449;28;20050;-63
2022/03/16 06:00:02;;;;;;;5.85;4.50;;;2.30;68.80;;;;;;5087947;28;20034;-64
2022/03/16 06:02:28;;;;;;;5.00;4.50;;;2.30;68.60;;;;;;5100139;28;20471;-63
2022/03/16 06:04:53;;;;;;;5.93;4.78;;;2.30;68.60;;;;;;5098902;28;20112;-63
2022/03/16 06:07:19;;;;;;;4.97;4.25;;;2.40;68.90;;;;;;5095054;28;20477;-63
2022/03/16 06:09:45;;;;;;;5.72;4.72;;;2.50;68.70;;;;;;5105077;28;20024;-63
2022/03/16 06:12:11;;;;;;;4.75;4.25;;;2.60;67.80;;;;;;5092334;28;20384;-63
2022/03/16 06:14:37;;;;;;;5.35;4.63;;;2.60;67.80;;;;;;5106815;28;20099;-63
2022/03/16 06:17:03;;;;;;;6.15;3.67;;;2.70;68.30;;;;;;5085085;28;20039;-63
2022/03/16 06:19:29;;;;;;;6.05;4.68;;;2.80;67.70;;;;;;5092020;28;20024;-63
2022/03/16 06:21:54;;;;;;;7.38;4.22;;;2.80;67.50;;;;;;5103459;28;20035;-63
2022/03/16 06:24:20;;;;;;;5.18;4.68;;;2.80;67.30;;;;;;5086956;28;20028;-63
2022/03/16 06:26:46;;;;;;;5.40;4.70;;;2.70;67.40;;;;;;5096738;28;20055;-63
2022/03/16 06:29:12;;;;;;;5.63;4.30;;;2.70;67.60;;;;;;5099969;28;20024;-63
2022/03/16 06:31:37;;;;;;;5.47;4.93;;;2.80;67.30;;;;;;5106418;28;20028;-63
2022/03/16 06:34:03;;;;;;;5.82;5.03;;;2.80;67.50;;;;;;5103906;28;20052;-63
2022/03/16 06:36:29;;;;;;;5.30;4.38;;;2.80;67.50;;;;;;5091112;28;20044;-63
2022/03/16 06:38:56;;;;;;;6.65;5.03;;;2.90;67.60;;;;;;5095767;28;20024;-63
2022/03/16 06:41:22;;;;;;;5.28;4.40;;;2.90;67.30;;;;;;5088606;28;20468;-63
2022/03/16 06:43:48;;;;;;;5.45;4.88;;;2.90;67.00;;;;;;5105622;28;20031;-63
2022/03/16 06:46:14;;;;;;;5.63;5.03;;;2.80;67.00;;;;;;5099437;28;20379;-63
2022/03/16 06:48:40;;;;;;;5.30;4.80;;;2.70;67.40;;;;;;5101063;28;20027;-63
2022/03/16 06:51:06;;;;;;;6.13;5.00;;;2.60;67.80;;;;;;5095858;28;20032;-63
2022/03/16 06:53:32;;;;;;;6.22;5.35;;;2.70;67.90;;;;;;5109616;28;20061;-63
2022/03/16 06:55:58;;;;;;;6.50;5.55;;;2.60;67.80;;;;;;5100525;28;20440;-63
2022/03/16 06:58:24;;;;;;;6.45;5.07;;;2.60;68.10;;;;;;5091841;28;20033;-63
2022/03/16 07:00:49;;;;;;;5.82;4.90;;;2.50;67.90;;;;;;5089995;28;20032;-63
2022/03/16 07:03:15;;;;;;;6.65;5.50;;;2.50;67.70;;;;;;5081476;28;20031;-63
2022/03/16 07:05:42;;;;;;;6.65;5.38;;;2.40;68.40;;;;;;5094545;28;20067;-63
2022/03/16 07:08:10;;;;;;;5.90;5.00;;;2.50;68.20;;;;;;5086428;28;20031;-63
2022/03/16 07:10:37;;;;;;;6.22;5.28;;;2.60;67.80;;;;;;5083091;28;20028;-63
2022/03/16 07:13:03;;;;;;;5.97;5.07;;;2.70;67.50;;;;;;5083536;28;20039;-63
2022/03/16 07:15:31;;;;;;;5.10;4.60;;;2.80;67.40;;;;;;5084488;28;20032;-63
2022/03/16 07:17:58;;;;;;;6.50;5.50;;;2.90;67.10;;;;;;5083688;28;20031;-64
2022/03/16 07:20:24;;;;;;;5.45;4.88;;;2.90;66.90;;;;;;5075322;28;20150;-63
2022/03/16 07:23:12;;;;;;;5.90;4.82;;;2.90;66.70;;;;;;5081893;28;20366;-64
2022/03/16 07:25:43;;;;;;;6.07;4.63;;;2.90;66.40;;;;;;5087143;28;20024;-63
2022/03/16 07:28:10;;;;;;;5.53;4.85;;;2.80;66.60;;;;;;5081313;28;20033;-63
2022/03/16 07:30:37;;;;;;;5.68;4.88;;;2.70;66.50;;;;;;5082623;28;20410;-63
2022/03/16 07:33:03;;;;;;;5.57;4.60;;;2.60;66.40;;;;;;5085000;28;20631;-63
2022/03/16 07:35:29;;;;;;;6.75;5.50;;;2.60;67.10;;;;;;5079431;28;20075;-63
2022/03/16 07:37:57;;;;;;;6.28;5.13;;;2.50;67.30;;;;;;5077508;28;20040;-63
2022/03/16 07:40:24;;;;;;;5.97;5.22;;;2.60;67.10;;;;;;5075934;28;20032;-63
2022/03/16 07:42:51;;;;;;;6.25;5.00;;;2.50;66.80;;;;;;5081428;28;20032;-63
2022/03/16 07:45:18;;;;;;;7.38;5.78;;;2.50;67.10;;;;;;5079205;28;20020;-64
2022/03/16 07:47:49;;;;;;;6.18;5.10;;;2.50;67.10;;;;;;5086683;28;20039;-63
2022/03/16 07:50:16;;;;;;;7.18;5.80;;;2.50;67.10;;;;;;5082106;28;20380;-66
2022/03/16 07:52:43;;;;;;;6.63;4.93;;;2.50;67.00;;;;;;5082424;28;20032;-63
2022/03/16 07:55:10;;;;;;;7.78;5.45;;;2.60;67.00;;;;;;5089783;28;20085;-64
2022/03/16 07:57:37;;;;;;;7.28;5.30;;;2.60;66.60;;;;;;5087762;28;20032;-64
2022/03/16 08:00:08;;;;;;;7.32;5.18;;;2.70;66.70;;;;;;5078285;28;20448;-62
2022/03/16 08:02:34;;;;;;;6.55;5.45;;;2.80;66.60;;;;;;5087512;28;20086;-64
2022/03/16 08:05:01;;;;;;;6.20;5.10;;;2.80;66.00;;;;;;5086302;28;20028;-64
2022/03/16 08:07:27;;;;;;;6.03;4.88;;;2.80;65.80;;;;;;5087083;28;20028;-64
2022/03/16 08:09:53;;;;;;;5.97;4.97;;;2.80;66.10;;;;;;5083911;28;20028;-64
2022/03/16 08:12:19;;;;;;;7.25;5.45;;;2.80;65.80;;;;;;5082965;28;20032;-64
2022/03/16 08:14:44;;;;;;;6.00;5.30;;;2.80;65.60;;;;;;5078510;28;20166;-60
2022/03/16 08:17:10;;;;;;;6.50;5.00;;;2.70;65.90;;;;;;5075643;28;20466;-63
2022/03/16 08:19:35;;;;;;;5.72;4.85;;;2.70;65.70;;;;;;5078850;28;20529;-61
2022/03/16 08:22:01;;;;;;;5.43;4.68;;;2.70;65.80;;;;;;5079459;28;20132;-61
2022/03/16 08:24:27;;;;;;;6.60;4.85;;;2.60;65.90;;;;;;5077134;28;20095;-61
2022/03/16 08:26:52;;;;;;;6.47;5.50;;;2.50;66.10;;;;;;5079104;28;20024;-63
2022/03/16 08:29:18;;;;;;;5.53;4.90;;;2.50;65.50;;;;;;5074138;28;20087;-62
2022/03/16 08:31:44;;;;;;;6.80;4.65;;;2.40;65.30;;;;;;5085053;28;20474;-64
2022/03/16 08:34:10;;;;;;;5.57;4.88;;;2.30;65.40;;;;;;5088035;28;20074;-64
2022/03/16 08:36:37;;;;;;;5.22;4.70;;;2.20;65.50;;;;;;5083024;28;20040;-63
2022/03/16 08:39:03;;;;;;;5.55;5.05;;;2.20;65.60;;;;;;5082916;28;20034;-66
2022/03/16 08:41:31;;;;;;;4.68;4.22;;;2.10;65.60;;;;;;5079497;28;20028;-65
2022/03/16 08:43:57;;;;;;;5.47;4.75;;;2.10;65.80;;;;;;5078689;28;20099;-65
2022/03/16 08:46:23;;;;;;;5.45;4.93;;;2.00;65.80;;;;;;5079182;28;20111;-65
2022/03/16 08:48:48;;;;;;;5.75;4.50;;;2.00;65.70;;;;;;5078298;28;20028;-65
2022/03/16 08:51:14;;;;;;;5.20;4.50;;;2.10;66.00;;;;;;5077197;28;21433;-65
2022/03/16 08:53:40;;;;;;;6.95;5.10;;;2.10;66.10;;;;;;5079340;28;20025;-65
2022/03/16 08:56:05;;;;;;;5.38;4.57;;;2.10;65.50;;;;;;5078382;28;20028;-66
2022/03/16 08:58:32;;;;;;;5.75;5.20;;;2.20;65.90;;;;;;5078897;28;20107;-64
2022/03/16 09:00:58;;;;;;;6.07;5.00;;;2.20;65.50;;;;;;5082311;28;20107;-63
2022/03/16 09:03:23;;;;;;;6.35;4.72;;;2.20;65.80;;;;;;5082140;28;20110;-64
2022/03/16 09:05:49;;;;;;;5.55;5.05;;;2.20;65.60;;;;;;5084893;28;20020;-63
2022/03/16 09:08:15;;;;;;;5.28;4.78;;;2.10;65.60;;;;;;5085908;28;20108;-65
2022/03/16 09:10:40;;;;;;;5.18;4.47;;;2.10;65.80;;;;;;5086742;28;20039;-64
2022/03/16 09:13:06;;;;;;;6.55;4.53;;;2.10;65.90;;;;;;5083796;28;20121;-66
2022/03/16 09:15:32;;;;;;;6.15;5.45;;;2.00;66.00;;;;;;5079880;28;20360;-64
2022/03/16 09:17:58;;;;;;;6.35;5.35;;;1.90;66.10;;;;;;5084990;28;20024;-65
2022/03/16 09:20:24;;;;;;;5.47;4.72;;;1.90;66.40;;;;;;5077813;28;20036;-65
2022/03/16 09:22:50;;;;;;;6.20;4.60;;;1.90;66.70;;;;;;5081996;28;20028;-65
2022/03/16 09:25:15;;;;;;;5.60;5.10;;;1.90;66.30;;;;;;5076759;28;20032;-63
2022/03/16 09:27:41;;;;;;;6.30;5.38;;;1.80;66.30;;;;;;5081812;28;20045;-64
2022/03/16 09:30:08;;;;;;;5.57;4.65;;;1.80;66.60;;;;;;5083173;28;20024;-65
2022/03/16 09:32:34;;;;;;;5.45;4.95;;;1.70;66.40;;;;;;5082128;28;20085;-65
2022/03/16 09:35:00;;;;;;;5.40;4.75;;;1.70;66.70;;;;;;5080774;28;20020;-65
2022/03/16 09:37:26;;;;;;;6.13;5.15;;;1.70;66.40;;;;;;5082821;28;20381;-64
2022/03/16 09:39:52;;;;;;;5.40;4.60;;;1.70;66.70;;;;;;5086956;28;20094;-64
2022/03/16 09:42:20;;;;;;;6.28;4.90;;;1.70;66.70;;;;;;5085318;28;20032;-65
2022/03/16 09:44:47;;;;;;;5.57;4.88;;;1.70;66.40;;;;;;5077424;28;20074;-64
2022/03/16 09:47:14;;;;;;;5.72;5.10;;;1.70;66.20;;;;;;5080303;28;20028;-65
2022/03/16 09:49:39;;;;;;;6.07;4.80;;;1.70;66.20;;;;;;5079257;28;20039;-65
2022/03/16 09:52:07;;;;;;;4.88;4.38;;;1.60;66.30;;;;;;5073349;28;20485;-65
2022/03/16 09:54:33;;;;;;;5.53;4.47;;;1.60;66.00;;;;;;5075801;28;20486;-65
2022/03/16 09:56:59;;;;;;;5.57;4.65;;;1.60;65.80;;;;;;5072081;28;20667;-65
2022/03/16 09:59:25;;;;;;;5.43;4.68;;;1.60;66.60;;;;;;5072692;28;20404;-65
2022/03/16 10:02:10;;;;;;;4.47;4.07;;;1.50;66.00;;;;;;5069810;28;20046;-64
2022/03/16 10:04:36;;;;;;;4.47;4.07;;;1.50;65.40;;;;;;5074953;28;20055;-65
2022/03/16 10:07:05;;;;;;;5.30;4.80;;;1.50;65.80;;;;;;5076581;28;20150;-64
2022/03/16 10:15:12;;;;;;;5.75;4.82;;;1.40;65.70;;;;;;5072932;28;20121;-65
2022/03/16 10:17:43;;;;;;;5.82;5.10;;;1.40;66.10;;;;;;5074577;28;20043;-65
2022/03/16 10:20:21;;;;;;;4.93;4.43;;;1.40;67.10;;;;;;5077012;28;20394;-65
2022/03/16 10:23:05;;;;;;;5.40;4.55;;;1.40;66.60;;;;;;5076834;28;20147;-64
2022/03/16 10:25:37;;;;;;;6.05;4.55;;;1.40;66.90;;;;;;5076046;28;20021;-64
2022/03/16 10:28:10;;;;;;;5.65;4.68;;;1.40;66.40;;;;;;5077719;28;20038;-64
2022/03/16 10:30:37;;;;;;;4.20;3.80;;;1.40;66.20;;;;;;5072131;28;20059;-64
2022/03/16 10:33:03;;;;;;;4.82;4.32;;;1.40;66.10;;;;;;5079852;28;20529;-66
2022/03/16 10:35:29;;;;;;;4.72;4.10;;;1.40;65.60;;;;;;5072043;28;20033;-66
2022/03/16 10:38:10;;;;;;;4.20;3.80;;;1.40;65.20;;;;;;5072289;28;20062;-66
2022/03/16 10:40:36;;;;;;;4.22;3.83;;;1.50;64.80;;;;;;5075841;28;20904;-66
2022/03/16 10:49:10;;;;;;;4.57;4.13;;;1.60;64.20;;;;;;5071075;28;20050;-66
2022/03/16 10:51:36;;;;;;;4.50;4.03;;;1.60;64.10;;;;;;5074265;28;20024;-66
2022/03/16 10:54:05;;;;;;;4.70;4.20;;;1.60;64.50;;;;;;5078629;28;20104;-65
2022/03/16 10:56:31;;;;;;;4.38;3.97;;;1.50;64.20;;;;;;5074289;28;20016;-65
2022/03/16 10:58:59;;;;;;;3.90;3.60;;;1.60;64.40;;;;;;5081427;28;20020;-65
2022/03/16 11:01:27;;;;;;;4.50;3.67;;;1.60;64.50;;;;;;5071392;28;20116;-66
2022/03/16 11:03:55;;;;;;;5.65;3.88;;;1.60;65.10;;;;;;5075306;28;20028;-65
2022/03/16 11:06:21;;;;;;;4.68;3.85;;;1.60;64.40;;;;;;5075811;28;20048;-64
2022/03/16 11:08:50;;;;;;;4.55;3.80;;;1.60;64.00;;;;;;5077484;28;20111;-65
2022/03/16 11:14:03;;;;;;;4.07;3.72;;;1.70;63.40;;;;;;5081056;28;20047;-64
2022/03/16 11:16:30;;;;;;;4.18;3.80;;;1.70;63.30;;;;;;5076752;28;20065;-64
2022/03/16 11:18:58;;;;;;;4.82;3.72;;;1.70;63.20;;;;;;5080464;28;20443;-66
2022/03/16 11:21:45;;;;;;;4.85;3.90;;;1.70;62.50;;;;;;5076788;28;20052;-64
2022/03/16 11:24:16;;;;;;;4.65;3.90;;;1.80;62.80;;;;;;5079593;28;20062;-66
2022/03/16 11:27:13;;;;;;;3.83;3.50;;;1.80;62.60;;;;;;5078496;28;20043;-64
2022/03/16 11:29:45;;;;;;;4.32;3.60;;;1.90;61.70;;;;;;5076200;28;21303;-66
2022/03/16 11:32:13;;;;;;;4.30;3.65;;;1.90;62.00;;;;;;5078518;28;20088;-63
2022/03/16 11:34:54;;;;;;;3.78;3.47;;;1.90;62.20;;;;;;5076592;28;20086;-65
2022/03/16 11:37:33;;;;;;;4.47;4.07;;;1.90;62.60;;;;;;5078438;28;20040;-66
2022/03/16 11:40:13;;;;;;;5.00;3.70;;;1.90;62.70;;;;;;5075381;28;20032;-62
2022/03/16 11:42:59;;;;;;;4.78;4.20;;;1.90;62.50;;;;;;5073647;28;20043;-62
2022/03/16 11:45:34;;;;;;;5.35;3.70;;;1.90;62.70;;;;;;5077776;28;20055;-62
2022/03/16 11:48:00;;;;;;;3.95;3.58;;;1.90;62.70;;;;;;5078625;28;20078;-62
2022/03/16 11:50:28;;;;;;;3.85;3.50;;;2.00;62.40;;;;;;5072524;28;20680;-62
2022/03/16 11:53:04;;;;;;;4.30;3.78;;;2.00;62.40;;;;;;5079221;28;20062;-62
2022/03/16 11:55:50;;;;;;;3.90;3.50;;;2.10;62.60;;;;;;5074324;28;20032;-62
2022/03/16 11:58:22;;;;;;;4.03;3.63;;;2.10;62.70;;;;;;5070252;28;20543;-61
2022/03/16 12:00:48;;;;;;;4.70;3.90;;;2.10;62.70;;;;;;5069776;28;20028;-61
2022/03/16 12:03:23;;;;;;;4.20;3.40;;;2.10;62.80;;;;;;5076572;28;20069;-62
2022/03/16 12:05:59;;;;;;;4.85;3.35;;;2.10;62.50;;;;;;5077485;28;20038;-62
2022/03/16 12:08:31;;;;;;;3.75;3.45;;;2.10;62.30;;;;;;5081292;28;20020;-62
2022/03/16 12:13:47;;;;;;;3.83;3.47;;;2.10;62.40;;;;;;5070473;28;20102;-62
2022/03/16 12:16:18;;;;;;;3.83;3.53;;;2.10;62.30;;;;;;5081786;28;20040;-62
2022/03/16 12:18:46;;;;;;;4.03;3.55;;;2.10;62.30;;;;;;5074146;28;20040;-62
2022/03/16 12:21:14;;;;;;;5.45;4.47;;;2.10;62.00;;;;;;5079583;28;20115;-62
2022/03/16 12:23:49;;;;;;;3.72;3.42;;;2.10;62.20;;;;;;5077805;28;20028;-62
2022/03/16 12:26:19;;;;;;;4.78;3.80;;;2.10;62.00;;;;;;5073320;28;20633;-62
2022/03/16 12:29:18;;;;;;;3.80;3.50;;;2.20;61.50;;;;;;5074731;28;20024;-62
2022/03/16 12:31:40;;;;;;;4.13;3.28;;;2.20;61.90;;;;;;5078552;28;20175;-62
2022/03/16 12:34:07;;;;;;;3.90;3.50;;;2.20;61.10;;;;;;5073234;28;20029;-61
2022/03/16 12:36:35;;;;;;;3.88;3.50;;;2.20;60.50;;;;;;5075972;28;20052;-62
2022/03/16 12:39:08;;;;;;;3.70;3.30;;;2.20;60.10;;;;;;5079103;28;20522;-62
2022/03/16 12:44:19;;;;;;;4.32;3.50;;;2.30;59.50;;;;;;5082577;28;20027;-62
2022/03/16 12:47:26;;;;;;;3.92;3.53;;;2.30;59.30;;;;;;5081372;28;20078;-62
2022/03/16 12:49:54;;;;;;;3.25;2.95;;;2.40;59.60;;;;;;5037865;28;20056;-62
2022/03/16 12:52:20;;;;;;;4.07;3.67;;;2.40;59.10;;;;;;5034569;28;20025;-62
2022/03/16 12:54:46;;;;;;;4.00;3.30;;;2.50;58.90;;;;;;5060443;28;20043;-62
2022/03/16 12:57:13;;;;;;;5.45;3.70;;;2.60;58.60;;;;;;5082957;28;20081;-62
2022/03/16 13:00:04;;;;;;;3.55;3.25;;;2.60;58.40;;;;;;5073587;28;20027;-62
2022/03/16 13:02:30;;;;;;;4.07;3.33;;;2.70;58.40;;;;;;5074469;28;20071;-62
2022/03/16 13:04:56;;;;;;;3.55;2.78;;;2.70;58.20;;;;;;5081392;28;20023;-63
2022/03/16 13:07:23;;;;;;;3.70;3.30;;;2.70;58.60;;;;;;5081636;28;20021;-62
2022/03/16 13:09:50;;;;;;;3.50;3.20;;;2.70;58.60;;;;;;5079746;28;20107;-62
2022/03/16 13:12:16;;;;;;;3.58;3.28;;;2.80;58.10;;;;;;5080560;28;20020;-62
2022/03/16 13:14:46;;;;;;;4.43;3.65;;;2.80;58.00;;;;;;5078676;28;20058;-62
2022/03/16 13:17:13;;;;;;;3.00;2.80;;;2.90;57.80;;;;;;5071109;28;20107;-62
2022/03/16 13:19:40;;;;;;;3.63;3.13;;;2.90;57.60;;;;;;5076890;28;20044;-62